N2586X KBHM-
Flight info
| Callsign | N2586X |
|---|---|
| Flight time | N/A |
| Altitude | 035/ |
| Route | VFR NORTH NO FF |
| Aircraft | PA28/L-DOV/C |
Departure
| Time | 2026-04-17 00:30 |
|---|---|
| Airport | Birmingham-Shuttlesworth International Airport (KBHM) |
Arrival
| Time | N/A |
|---|---|
| Airport | - |
| Time | Latitude | Longitude | Altitude | Speed | Heading |
|---|---|---|---|---|---|
| 2026-04-17 00:30 | 33.56835 | -86.71362 | 1622 ft | 135 kts | 51° |
| 2026-04-17 00:30 | 33.57667 | -86.70935 | 1316 ft | 132 kts | 353° |
| 2026-04-17 00:30 | 33.58334 | -86.71423 | 1358 ft | 100 kts | 298° |
| 2026-04-17 00:31 | 33.58371 | -86.72218 | 1046 ft | 99 kts | 235° |
| 2026-04-17 00:31 | 33.57997 | -86.72792 | 1026 ft | 80 kts | 231° |
| 2026-04-17 00:31 | 33.57701 | -86.73309 | 918 ft | 73 kts | 235° |
| 2026-04-17 00:31 | 33.57401 | -86.73816 | 778 ft | 75 kts | 236° |
| 2026-04-17 00:32 | 33.57120 | -86.74307 | 683 ft | 61 kts | 236° |
| 2026-04-17 00:32 | 33.56924 | -86.74651 | 673 ft | 43 kts | 237° |
| 2026-04-17 00:32 | 33.56687 | -86.75066 | 697 ft | 74 kts | 235° |
| 2026-04-17 00:32 | 33.56392 | -86.75567 | 931 ft | 74 kts | 233° |
| 2026-04-17 00:33 | 33.56096 | -86.76074 | 1143 ft | 77 kts | 236° |
| 2026-04-17 00:33 | 33.55775 | -86.76585 | 1378 ft | 77 kts | 232° |
| 2026-04-17 00:33 | 33.55451 | -86.77107 | 1601 ft | 77 kts | 233° |
| 2026-04-17 00:33 | 33.55321 | -86.77712 | 1831 ft | 80 kts | 285° |
| 2026-04-17 00:34 | 33.55748 | -86.78132 | 2035 ft | 88 kts | 329° |
| 2026-04-17 00:34 | 33.56286 | -86.78460 | 2307 ft | 84 kts | 326° |
| 2026-04-17 00:34 | 33.56810 | -86.78773 | 2549 ft | 81 kts | 325° |
| 2026-04-17 00:34 | 33.57313 | -86.79093 | 2767 ft | 82 kts | 324° |
| 2026-04-17 00:35 | 33.57820 | -86.79438 | 2940 ft | 83 kts | 320° |
| 2026-04-17 00:35 | 33.58296 | -86.79809 | 3183 ft | 81 kts | 319° |
| 2026-04-17 00:35 | 33.58769 | -86.80170 | 3407 ft | 81 kts | 319° |
| 2026-04-17 00:35 | 33.59287 | -86.80443 | 3599 ft | 86 kts | 347° |
| 2026-04-17 00:36 | 33.59882 | -86.80311 | 3797 ft | 87 kts | 7° |
| 2026-04-17 00:36 | 33.60488 | -86.80124 | 3915 ft | 95 kts | 5° |
| 2026-04-17 00:36 | 33.61152 | -86.79982 | 4060 ft | 99 kts | 1° |
| 2026-04-17 00:36 | 33.61809 | -86.79764 | 4241 ft | 101 kts | 21° |
| 2026-04-17 00:37 | 33.62406 | -86.79372 | 4491 ft | 93 kts | 23° |
| 2026-04-17 00:37 | 33.62959 | -86.79005 | 4701 ft | 91 kts | 23° |
| 2026-04-17 00:37 | 33.63529 | -86.78621 | 4860 ft | 95 kts | 22° |
| 2026-04-17 00:37 | 33.64109 | -86.78228 | 5049 ft | 93 kts | 25° |
| 2026-04-17 00:38 | 33.64648 | -86.77839 | 5234 ft | 89 kts | 23° |
| 2026-04-17 00:38 | 33.65129 | -86.77311 | 5385 ft | 92 kts | 45° |
| 2026-04-17 00:38 | 33.65538 | -86.76721 | 5575 ft | 87 kts | 44° |
| 2026-04-17 00:38 | 33.65956 | -86.76151 | 5686 ft | 93 kts | 45° |
| 2026-04-17 00:39 | 33.66372 | -86.75599 | 5885 ft | 89 kts | 45° |
| 2026-04-17 00:39 | 33.66800 | -86.75042 | 5994 ft | 97 kts | 43° |
| 2026-04-17 00:39 | 33.67310 | -86.74410 | 6005 ft | 114 kts | 43° |
| 2026-04-17 00:39 | 33.67908 | -86.73712 | 5997 ft | 126 kts | 42° |
| 2026-04-17 00:40 | 33.68533 | -86.72947 | 5972 ft | 133 kts | 44° |
| 2026-04-17 00:40 | 33.69170 | -86.72142 | 6015 ft | 131 kts | 45° |
| 2026-04-17 00:40 | 33.69794 | -86.71333 | 6040 ft | 132 kts | 45° |
| 2026-04-17 00:40 | 33.70418 | -86.70531 | 6073 ft | 133 kts | 45° |
| 2026-04-17 00:41 | 33.71053 | -86.69709 | 6007 ft | 135 kts | 45° |
| 2026-04-17 00:41 | 33.71593 | -86.68779 | 5894 ft | 138 kts | 58° |
| 2026-04-17 00:41 | 33.72097 | -86.67815 | 5731 ft | 135 kts | 56° |
| 2026-04-17 00:41 | 33.72624 | -86.66891 | 5596 ft | 133 kts | 54° |
| 2026-04-17 00:42 | 33.73142 | -86.65950 | 5411 ft | 139 kts | 54° |
| 2026-04-17 00:42 | 33.73674 | -86.64979 | 5217 ft | 141 kts | 54° |
| 2026-04-17 00:42 | 33.74226 | -86.63996 | 5066 ft | 142 kts | 55° |
| 2026-04-17 00:42 | 33.74758 | -86.63005 | 4937 ft | 140 kts | 56° |
| 2026-04-17 00:43 | 33.75285 | -86.62038 | 4778 ft | 137 kts | 66° |
| 2026-04-17 00:43 | 33.75029 | -86.61033 | 4505 ft | 132 kts | 148° |
| 2026-04-17 00:43 | 33.74336 | -86.60348 | 4388 ft | 126 kts | 144° |
| 2026-04-17 00:43 | 33.73690 | -86.59664 | 4256 ft | 124 kts | 142° |
| 2026-04-17 00:44 | 33.73062 | -86.58976 | 4117 ft | 119 kts | 142° |
| 2026-04-17 00:44 | 33.72443 | -86.58279 | 3942 ft | 128 kts | 142° |
| 2026-04-17 00:44 | 33.71752 | -86.57573 | 3786 ft | 132 kts | 143° |
| 2026-04-17 00:44 | 33.71046 | -86.56816 | 3530 ft | 137 kts | 146° |
| 2026-04-17 00:45 | 33.70185 | -86.56460 | 3191 ft | 134 kts | 192° |
| 2026-04-17 00:45 | 33.69335 | -86.56863 | 3008 ft | 124 kts | 206° |
| 2026-04-17 00:45 | 33.68557 | -86.57252 | 2961 ft | 120 kts | 207° |
| 2026-04-17 00:45 | 33.67793 | -86.57630 | 2982 ft | 121 kts | 206° |
| 2026-04-17 00:46 | 33.67000 | -86.58000 | 2972 ft | 123 kts | 204° |
| 2026-04-17 00:46 | 33.66298 | -86.58520 | 2984 ft | 116 kts | 227° |
| 2026-04-17 00:46 | 33.65736 | -86.59227 | 2998 ft | 118 kts | 231° |
| 2026-04-17 00:46 | 33.65242 | -86.60018 | 2996 ft | 119 kts | 237° |
| 2026-04-17 00:47 | 33.64788 | -86.60848 | 2950 ft | 122 kts | 238° |
| 2026-04-17 00:47 | 33.64315 | -86.61703 | 2936 ft | 121 kts | 237° |
| 2026-04-17 00:47 | 33.63830 | -86.62530 | 2917 ft | 122 kts | 236° |
| 2026-04-17 00:47 | 33.63315 | -86.63366 | 2824 ft | 127 kts | 236° |
| 2026-04-17 00:48 | 33.62833 | -86.64256 | 2713 ft | 129 kts | 240° |
| 2026-04-17 00:48 | 33.62360 | -86.65181 | 2693 ft | 127 kts | 238° |
| 2026-04-17 00:48 | 33.61886 | -86.66039 | 2626 ft | 127 kts | 235° |
| 2026-04-17 00:48 | 33.61362 | -86.66912 | 2413 ft | 127 kts | 234° |
| 2026-04-17 00:49 | 33.60842 | -86.67780 | 2198 ft | 129 kts | 236° |
| 2026-04-17 00:49 | 33.60349 | -86.68678 | 2004 ft | 127 kts | 237° |
| 2026-04-17 00:49 | 33.59841 | -86.69536 | 1759 ft | 123 kts | 234° |
| 2026-04-17 00:49 | 33.59374 | -86.70378 | 1546 ft | 120 kts | 238° |
| 2026-04-17 00:50 | 33.58898 | -86.71216 | 1386 ft | 125 kts | 233° |
| 2026-04-17 00:50 | 33.58387 | -86.72089 | 1230 ft | 128 kts | 235° |
| 2026-04-17 00:50 | 33.57881 | -86.72980 | 1006 ft | 131 kts | 234° |
| 2026-04-17 00:50 | 33.57360 | -86.73881 | 784 ft | 134 kts | 236° |
| 2026-04-17 00:51 | 33.56863 | -86.74759 | 906 ft | 119 kts | 236° |
| 2026-04-17 00:51 | 33.56399 | -86.75548 | 1058 ft | 112 kts | 234° |
| 2026-04-17 00:51 | 33.55977 | -86.76307 | 1255 ft | 107 kts | 236° |
| 2026-04-17 00:51 | 33.55558 | -86.77016 | 1454 ft | 102 kts | 232° |
| 2026-04-17 00:52 | 33.55133 | -86.77679 | 1682 ft | 98 kts | 233° |
| 2026-04-17 00:52 | 33.54732 | -86.78266 | 1976 ft | 87 kts | 232° |
| 2026-04-17 00:52 | 33.54335 | -86.78807 | 2159 ft | 88 kts | 228° |
| 2026-04-17 00:52 | 33.53917 | -86.79324 | 2351 ft | 87 kts | 229° |
| 2026-04-17 00:53 | 33.53585 | -86.79905 | 2501 ft | 89 kts | 265° |
| 2026-04-17 00:53 | 33.53943 | -86.80522 | 2608 ft | 104 kts | 324° |
| 2026-04-17 00:53 | 33.54565 | -86.80970 | 2724 ft | 107 kts | 323° |
| 2026-04-17 00:53 | 33.55185 | -86.81446 | 2891 ft | 105 kts | 321° |
| 2026-04-17 00:54 | 33.55806 | -86.81906 | 3049 ft | 104 kts | 323° |
| 2026-04-17 00:54 | 33.56397 | -86.82342 | 3284 ft | 95 kts | 321° |
| 2026-04-17 00:54 | 33.56948 | -86.82778 | 3448 ft | 97 kts | 320° |
| 2026-04-17 00:54 | 33.57520 | -86.83198 | 3636 ft | 95 kts | 322° |
| 2026-04-17 00:55 | 33.58084 | -86.83620 | 3801 ft | 96 kts | 322° |
| 2026-04-17 00:55 | 33.58679 | -86.83993 | 3925 ft | 106 kts | 346° |
| 2026-04-17 00:55 | 33.59418 | -86.83681 | 4005 ft | 120 kts | 41° |
| 2026-04-17 00:55 | 33.59913 | -86.82861 | 4113 ft | 124 kts | 54° |
| 2026-04-17 00:56 | 33.60392 | -86.81994 | 4214 ft | 126 kts | 56° |
| 2026-04-17 00:56 | 33.60878 | -86.81097 | 4211 ft | 133 kts | 54° |
| 2026-04-17 00:56 | 33.61431 | -86.80142 | 4082 ft | 147 kts | 53° |
| 2026-04-17 00:56 | 33.62016 | -86.79124 | 3998 ft | 148 kts | 53° |
| 2026-04-17 00:57 | 33.62605 | -86.78130 | 4083 ft | 138 kts | 53° |
| 2026-04-17 00:57 | 33.63137 | -86.77215 | 4196 ft | 134 kts | 53° |
| 2026-04-17 00:57 | 33.63663 | -86.76268 | 4165 ft | 140 kts | 55° |
| 2026-04-17 00:57 | 33.64190 | -86.75272 | 4111 ft | 142 kts | 56° |
| 2026-04-17 00:58 | 33.64740 | -86.74306 | 4049 ft | 138 kts | 53° |
| 2026-04-17 00:58 | 33.65275 | -86.73327 | 3909 ft | 143 kts | 56° |
| 2026-04-17 00:58 | 33.65812 | -86.72306 | 3764 ft | 144 kts | 56° |
| 2026-04-17 00:58 | 33.66363 | -86.71293 | 3622 ft | 145 kts | 55° |
| 2026-04-17 00:59 | 33.66897 | -86.70273 | 3481 ft | 145 kts | 59° |
| 2026-04-17 00:59 | 33.67444 | -86.69279 | 3361 ft | 144 kts | 54° |
| 2026-04-17 00:59 | 33.68013 | -86.68309 | 3236 ft | 143 kts | 52° |
| 2026-04-17 00:59 | 33.68599 | -86.67353 | 3112 ft | 141 kts | 51° |
| 2026-04-17 01:00 | 33.69188 | -86.66426 | 3039 ft | 137 kts | 51° |
| 2026-04-17 01:00 | 33.69753 | -86.65500 | 2983 ft | 137 kts | 52° |
| 2026-04-17 01:00 | 33.70311 | -86.64552 | 2968 ft | 139 kts | 53° |
| 2026-04-17 01:00 | 33.70302 | -86.63410 | 2839 ft | 143 kts | 126° |
| 2026-04-17 01:01 | 33.69680 | -86.62624 | 3052 ft | 124 kts | 140° |
| 2026-04-17 01:01 | 33.68912 | -86.62279 | 3072 ft | 117 kts | 183° |
| 2026-04-17 01:01 | 33.68074 | -86.62327 | 3024 ft | 124 kts | 188° |
| 2026-04-17 01:01 | 33.67201 | -86.62408 | 2961 ft | 130 kts | 189° |
| 2026-04-17 01:02 | 33.66275 | -86.62511 | 2808 ft | 137 kts | 189° |
| 2026-04-17 01:02 | 33.65301 | -86.62611 | 2616 ft | 142 kts | 189° |
| 2026-04-17 01:02 | 33.64347 | -86.62752 | 2584 ft | 132 kts | 197° |
| 2026-04-17 01:02 | 33.63572 | -86.63240 | 2566 ft | 127 kts | 220° |
| 2026-04-17 01:03 | 33.62992 | -86.64004 | 2539 ft | 122 kts | 237° |
| 2026-04-17 01:03 | 33.62524 | -86.64891 | 2418 ft | 130 kts | 239° |
| 2026-04-17 01:03 | 33.62039 | -86.65797 | 2350 ft | 128 kts | 237° |
| 2026-04-17 01:03 | 33.61514 | -86.66661 | 2268 ft | 128 kts | 235° |
| 2026-04-17 01:04 | 33.60996 | -86.67551 | 2116 ft | 132 kts | 237° |
| 2026-04-17 01:04 | 33.60484 | -86.68464 | 1972 ft | 132 kts | 237° |
| 2026-04-17 01:04 | 33.59943 | -86.69373 | 1777 ft | 135 kts | 236° |
| 2026-04-17 01:04 | 33.59463 | -86.70323 | 1670 ft | 129 kts | 236° |
| 2026-04-17 01:05 | 33.58907 | -86.71108 | 1468 ft | 119 kts | 236° |
| 2026-04-17 01:05 | 33.58536 | -86.71867 | 1222 ft | 100 kts | 238° |
| 2026-04-17 01:05 | 33.58145 | -86.72530 | 1045 ft | 95 kts | 232° |
| 2026-04-17 01:05 | 33.57789 | -86.73138 | 897 ft | 82 kts | 234° |
| 2026-04-17 01:06 | 33.57478 | -86.73687 | 777 ft | 78 kts | 234° |
| 2026-04-17 01:06 | 33.57176 | -86.74219 | 687 ft | 72 kts | 233° |
| 2026-04-17 01:06 | 33.56941 | -86.74620 | 673 ft | 47 kts | 234° |
| 2026-04-17 01:06 | 33.56820 | -86.74837 | 672 ft | 0 kts | 232° |
| 2026-04-17 01:07 | 33.56797 | -86.74875 | 672 ft | 24 kts | 233° |
| 2026-04-17 01:07 | 33.56604 | -86.75208 | 672 ft | 70 kts | 234° |
| 2026-04-17 01:07 | 33.56317 | -86.75750 | 871 ft | 77 kts | 237° |
| 2026-04-17 01:07 | 33.56020 | -86.76318 | 1062 ft | 83 kts | 234° |
| 2026-04-17 01:08 | 33.55645 | -86.76851 | 1301 ft | 84 kts | 209° |
| 2026-04-17 01:08 | 33.55064 | -86.76719 | 1430 ft | 101 kts | 143° |
| 2026-04-17 01:08 | 33.54570 | -86.76117 | 1634 ft | 104 kts | 137° |
| 2026-04-17 01:08 | 33.54357 | -86.75240 | 1662 ft | 125 kts | 83° |
| 2026-04-17 01:09 | 33.54711 | -86.74277 | 1733 ft | 128 kts | 52° |
| 2026-04-17 01:09 | 33.55239 | -86.73380 | 1777 ft | 133 kts | 55° |
| 2026-04-17 01:09 | 33.55742 | -86.72410 | 1706 ft | 138 kts | 56° |
| 2026-04-17 01:09 | 33.56252 | -86.71429 | 1692 ft | 137 kts | 58° |
| 2026-04-17 01:10 | 33.56715 | -86.70448 | 1715 ft | 135 kts | 63° |
| 2026-04-17 01:10 | 33.57108 | -86.69423 | 1698 ft | 136 kts | 64° |
| 2026-04-17 01:10 | 33.57530 | -86.68472 | 1655 ft | 131 kts | 72° |
| 2026-04-17 01:10 | 33.58000 | -86.67552 | 1731 ft | 126 kts | 54° |
| 2026-04-17 01:11 | 33.58509 | -86.66662 | 1741 ft | 133 kts | 54° |
| 2026-04-17 01:11 | 33.59023 | -86.65723 | 1770 ft | 135 kts | 56° |
| 2026-04-17 01:11 | 33.59592 | -86.64845 | 1771 ft | 128 kts | 27° |
| 2026-04-17 01:11 | 33.60411 | -86.64857 | 1726 ft | 121 kts | 326° |
| 2026-04-17 01:12 | 33.61092 | -86.65400 | 1787 ft | 116 kts | 318° |
| 2026-04-17 01:12 | 33.61542 | -86.66161 | 1664 ft | 117 kts | 274° |
| 2026-04-17 01:12 | 33.61225 | -86.67019 | 1579 ft | 118 kts | 239° |
| 2026-04-17 01:12 | 33.60804 | -86.67878 | 1496 ft | 123 kts | 237° |
| 2026-04-17 01:13 | 33.60324 | -86.68735 | 1383 ft | 126 kts | 233° |
| 2026-04-17 01:13 | 33.59977 | -86.69289 | 1384 ft | 125 kts | 232° |
| 2026-04-17 01:13 | 33.59509 | -86.70139 | 1443 ft | 116 kts | 237° |
| 2026-04-17 01:13 | 33.59102 | -86.70864 | 1385 ft | 90 kts | 235° |
| 2026-04-17 01:14 | 33.58752 | -86.71457 | 1249 ft | 86 kts | 234° |
| 2026-04-17 01:14 | 33.58427 | -86.72065 | 1089 ft | 87 kts | 234° |
| 2026-04-17 01:14 | 33.58070 | -86.72640 | 1011 ft | 88 kts | 233° |
| 2026-04-17 01:14 | 33.57720 | -86.73265 | 892 ft | 92 kts | 234° |
| 2026-04-17 01:15 | 33.57377 | -86.73866 | 716 ft | 79 kts | 234° |
| 2026-04-17 01:15 | 33.57113 | -86.74318 | 671 ft | 54 kts | 234° |
| 2026-04-17 01:15 | 33.57033 | -86.74432 | 671 ft | 7 kts | 192° |
| 2026-04-17 01:15 | 33.56945 | -86.74389 | 671 ft | 1 kts | 145° |
| 2026-04-17 01:16 | 33.56913 | -86.74375 | 671 ft | 12 kts | 173° |
| 2026-04-17 01:16 | 33.56827 | -86.74471 | 671 ft | 22 kts | 234° |
| 2026-04-17 01:16 | 33.56746 | -86.74583 | 671 ft | 13 kts | 195° |
| 2026-04-17 01:16 | 33.56655 | -86.74581 | 671 ft | 12 kts | 144° |
| 2026-04-17 01:17 | 33.56640 | -86.74496 | 671 ft | 10 kts | 87° |
| 2026-04-17 01:17 | 33.56633 | -86.74406 | 671 ft | 14 kts | 104° |
| 2026-04-17 01:17 | 33.56584 | -86.74355 | 671 ft | 5 kts | 189° |
| 2026-04-17 01:17 | 33.56566 | -86.74341 | 671 ft | 7 kts | 137° |
| 2026-04-17 01:18 | 33.56571 | -86.74303 | 671 ft | 3 kts | 352° |
| 2026-04-17 01:18 | 33.56580 | -86.74302 | 671 ft | 0 kts | 13° |